createdAt,value
2023-02-02T00:01:29.071Z,2.20
2023-02-02T00:03:57.884Z,2.30
2023-02-02T00:06:26.829Z,2.50
2023-02-02T00:08:56.926Z,2.50
2023-02-02T00:11:25.455Z,2.30
2023-02-02T00:13:54.381Z,2.10
2023-02-02T00:16:28.611Z,1.90
2023-02-02T00:18:58.041Z,2.70
2023-02-02T00:21:26.027Z,2.30
2023-02-02T00:23:54.038Z,2.20
2023-02-02T00:26:22.019Z,2.40
2023-02-02T00:28:50.114Z,3.20
2023-02-02T00:31:17.888Z,2.80
2023-02-02T00:33:47.426Z,2.50
2023-02-02T00:36:15.812Z,2.30
2023-02-02T00:38:44.540Z,3.20
2023-02-02T00:41:12.582Z,3.10
2023-02-02T00:43:40.334Z,2.90
2023-02-02T00:46:10.123Z,2.60
2023-02-02T00:48:37.981Z,2.50
2023-02-02T00:51:05.939Z,2.60
2023-02-02T00:53:34.251Z,2.30
2023-02-02T00:56:02.342Z,2.20
2023-02-02T00:58:30.333Z,3.20
2023-02-02T01:00:58.273Z,2.50
2023-02-02T01:03:29.224Z,2.00
2023-02-02T01:05:57.682Z,2.00
2023-02-02T01:08:25.721Z,2.10
2023-02-02T01:10:53.505Z,2.30
2023-02-02T01:13:21.794Z,2.50
2023-02-02T01:15:49.640Z,1.70
2023-02-02T01:18:17.999Z,1.90
2023-02-02T01:20:45.754Z,2.60
2023-02-02T01:23:13.597Z,2.00
2023-02-02T01:25:41.409Z,1.80
2023-02-02T01:28:09.218Z,1.90
2023-02-02T01:30:36.913Z,1.60
2023-02-02T01:33:04.757Z,1.80
2023-02-02T01:35:33.718Z,1.90
2023-02-02T01:38:01.743Z,1.60
2023-02-02T01:40:29.507Z,2.00
2023-02-02T01:42:57.703Z,2.20
2023-02-02T01:45:27.993Z,1.80
2023-02-02T01:47:57.884Z,2.30
2023-02-02T01:50:29.826Z,2.40
2023-02-02T01:52:58.977Z,2.00
2023-02-02T01:55:28.406Z,1.70
2023-02-02T01:57:59.329Z,1.90
2023-02-02T02:00:27.900Z,1.70
2023-02-02T02:02:58.528Z,2.70
2023-02-02T02:05:32.204Z,2.50
2023-02-02T02:08:06.012Z,1.50
2023-02-02T02:10:35.056Z,2.20
2023-02-02T02:13:03.865Z,1.90
2023-02-02T02:15:53.174Z,2.30
2023-02-02T02:18:21.094Z,2.00
2023-02-02T02:21:20.174Z,1.70
2023-02-02T02:24:19.757Z,2.00
2023-02-02T02:27:03.346Z,1.60
2023-02-02T02:29:50.008Z,2.00
2023-02-02T02:32:17.918Z,2.00
2023-02-02T02:34:52.960Z,1.90
2023-02-02T02:37:33.704Z,2.30
2023-02-02T02:40:01.448Z,2.20
2023-02-02T02:42:31.283Z,2.10
2023-02-02T02:45:01.391Z,1.90
2023-02-02T02:47:30.432Z,1.50
2023-02-02T02:49:58.293Z,2.00
2023-02-02T02:52:26.165Z,1.90
2023-02-02T02:54:54.776Z,2.20
2023-02-02T02:57:35.018Z,2.30
2023-02-02T03:00:22.061Z,1.70
2023-02-02T03:03:05.706Z,1.80
2023-02-02T03:05:38.491Z,2.10
2023-02-02T03:08:10.809Z,2.10
2023-02-02T03:10:40.475Z,1.80
2023-02-02T03:13:09.733Z,1.90
2023-02-02T03:15:40.494Z,1.60
2023-02-02T03:18:08.295Z,2.30
2023-02-02T03:20:36.345Z,2.10
2023-02-02T03:23:04.231Z,1.90
2023-02-02T03:25:32.079Z,2.30
2023-02-02T03:28:00.657Z,1.90
2023-02-02T03:30:28.889Z,2.30
2023-02-02T03:32:56.631Z,2.10
2023-02-02T03:35:26.198Z,2.10
2023-02-02T03:37:54.592Z,1.80
2023-02-02T03:40:22.951Z,2.30
2023-02-02T03:42:50.843Z,1.90
2023-02-02T03:45:18.622Z,2.10
2023-02-02T03:47:46.442Z,2.00
2023-02-02T03:50:14.684Z,1.90
2023-02-02T03:52:43.024Z,2.10
2023-02-02T03:55:11.550Z,2.10
2023-02-02T03:57:39.406Z,2.10
2023-02-02T04:00:08.267Z,2.10
2023-02-02T04:02:36.463Z,2.00
2023-02-02T04:05:04.858Z,2.10
2023-02-02T04:07:32.890Z,2.10
2023-02-02T04:10:00.639Z,1.90
2023-02-02T04:12:28.407Z,2.10
2023-02-02T04:14:56.190Z,1.90
2023-02-02T04:17:23.884Z,2.70
2023-02-02T04:19:58.207Z,2.30
2023-02-02T04:22:26.526Z,1.60
2023-02-02T04:24:54.680Z,1.70
2023-02-02T04:27:22.446Z,2.00
2023-02-02T04:29:50.246Z,2.00
2023-02-02T04:32:18.497Z,1.50
2023-02-02T04:34:46.233Z,2.10
2023-02-02T04:37:14.095Z,1.80
2023-02-02T04:39:42.060Z,2.00
2023-02-02T04:42:09.834Z,1.40
2023-02-02T04:44:38.466Z,1.70
2023-02-02T04:47:06.639Z,1.80
2023-02-02T04:49:34.475Z,1.40
2023-02-02T04:52:02.727Z,2.10
2023-02-02T04:54:30.416Z,2.00
2023-02-02T04:56:58.156Z,2.20
2023-02-02T04:59:28.612Z,2.00
2023-02-02T05:01:59.276Z,2.10
2023-02-02T05:04:27.760Z,2.30
2023-02-02T05:06:55.559Z,2.00
2023-02-02T05:09:23.646Z,2.10
2023-02-02T05:11:51.588Z,2.10
2023-02-02T05:14:20.376Z,2.40
2023-02-02T05:16:50.153Z,2.40
2023-02-02T05:19:18.066Z,2.70
2023-02-02T05:21:50.789Z,3.20
2023-02-02T05:24:19.023Z,3.20
2023-02-02T05:26:48.069Z,2.60
2023-02-02T05:29:16.789Z,2.20
2023-02-02T05:31:45.204Z,2.50
2023-02-02T05:34:13.480Z,1.90
2023-02-02T05:36:41.530Z,1.90
2023-02-02T05:39:09.827Z,4.20
2023-02-02T05:41:37.703Z,2.40
2023-02-02T05:44:05.520Z,2.30
2023-02-02T05:46:33.288Z,2.10
2023-02-02T05:49:04.911Z,2.10
2023-02-02T05:51:35.241Z,1.70
2023-02-02T05:54:03.152Z,2.10
2023-02-02T05:56:31.667Z,2.40
2023-02-02T05:59:00.179Z,2.40
2023-02-02T06:01:28.571Z,2.10
2023-02-02T06:03:56.467Z,2.20
2023-02-02T06:06:24.229Z,1.80
2023-02-02T06:08:51.932Z,1.90
2023-02-02T06:11:20.032Z,1.90
2023-02-02T06:13:48.199Z,2.20
2023-02-02T06:16:16.453Z,2.00
2023-02-02T06:18:45.407Z,2.40
2023-02-02T06:21:13.402Z,2.10
2023-02-02T06:23:46.004Z,2.20
2023-02-02T06:26:15.083Z,2.50
2023-02-02T06:28:43.573Z,3.80
2023-02-02T06:31:11.986Z,10.30
2023-02-02T06:33:40.371Z,9.70
2023-02-02T06:36:08.239Z,7.80
2023-02-02T06:38:36.162Z,3.20
2023-02-02T06:41:06.068Z,3.10
2023-02-02T06:43:33.874Z,2.20
2023-02-02T06:46:02.265Z,4.10
2023-02-02T06:48:30.208Z,2.10
2023-02-02T06:50:59.936Z,2.40
2023-02-02T06:53:28.480Z,1.90
2023-02-02T06:55:56.995Z,1.90
2023-02-02T06:58:25.161Z,1.50
2023-02-02T07:00:53.319Z,2.00
2023-02-02T07:03:23.650Z,1.80
2023-02-02T07:05:52.078Z,2.00
2023-02-02T07:08:20.303Z,1.80
2023-02-02T07:11:13.599Z,1.60
2023-02-02T07:13:37.487Z,1.50
2023-02-02T07:16:05.780Z,1.80
2023-02-02T07:18:34.063Z,3.10
2023-02-02T07:21:02.631Z,6.40
2023-02-02T07:23:30.971Z,2.30
2023-02-02T07:26:03.394Z,4.90
2023-02-02T07:28:31.680Z,3.20
2023-02-02T07:31:00.756Z,4.20
2023-02-02T07:33:28.765Z,3.20
2023-02-02T07:35:56.656Z,5.20
2023-02-02T07:38:24.732Z,4.80
2023-02-02T07:40:52.530Z,5.10
2023-02-02T07:43:20.593Z,16.10
2023-02-02T07:45:48.653Z,8.20
2023-02-02T07:48:16.570Z,34.70
2023-02-02T07:50:44.491Z,52.60
2023-02-02T07:53:12.882Z,21.90
2023-02-02T07:55:40.813Z,19.50
2023-02-02T07:58:10.347Z,13.90
2023-02-02T08:00:38.175Z,2.90
2023-02-02T08:03:06.526Z,1.80
2023-02-02T08:05:35.888Z,2.10
2023-02-02T08:08:04.407Z,2.20
2023-02-02T08:10:32.695Z,1.70
2023-02-02T08:13:00.436Z,14.10
2023-02-02T08:15:28.461Z,11.20
2023-02-02T08:17:56.625Z,6.00
2023-02-02T08:20:24.437Z,1.40
2023-02-02T08:22:52.248Z,0.90
2023-02-02T08:25:20.508Z,1.20
2023-02-02T08:27:48.362Z,2.40
2023-02-02T08:30:16.685Z,1.50
2023-02-02T08:32:44.565Z,1.50
2023-02-02T08:35:13.297Z,2.20
2023-02-02T08:37:41.390Z,2.00
2023-02-02T08:40:10.067Z,2.10
2023-02-02T08:42:37.939Z,1.80
2023-02-02T08:46:02.112Z,1.30
2023-02-02T08:48:10.382Z,1.50
2023-02-02T08:50:39.920Z,0.90
2023-02-02T08:53:07.785Z,1.80
2023-02-02T08:55:35.711Z,1.60
2023-02-02T08:58:03.556Z,2.00
2023-02-02T09:00:31.400Z,1.60
2023-02-02T09:02:59.177Z,1.70
2023-02-02T09:05:28.370Z,1.50
2023-02-02T09:07:57.125Z,1.10
2023-02-02T09:10:24.962Z,1.30
2023-02-02T09:12:53.252Z,1.30
2023-02-02T09:15:22.769Z,1.60
2023-02-02T09:17:50.766Z,1.40
2023-02-02T09:20:20.596Z,1.60
2023-02-02T09:22:49.271Z,1.80
2023-02-02T09:25:17.505Z,1.30
2023-02-02T09:27:45.881Z,1.60
2023-02-02T09:30:14.329Z,1.20
2023-02-02T09:32:42.226Z,1.50
2023-02-02T09:35:10.162Z,2.00
2023-02-02T09:37:38.847Z,5.20
2023-02-02T09:40:07.106Z,20.50
2023-02-02T09:42:51.702Z,9.20
2023-02-02T09:45:35.128Z,2.10
2023-02-02T09:48:11.186Z,1.40
2023-02-02T09:50:52.816Z,1.30
2023-02-02T09:53:26.639Z,1.40
2023-02-02T09:55:57.506Z,1.30
2023-02-02T09:58:28.009Z,1.80
2023-02-02T10:01:14.578Z,1.00
2023-02-02T10:03:45.666Z,1.30
2023-02-02T10:06:30.940Z,1.20
2023-02-02T10:09:03.405Z,0.90
2023-02-02T10:11:37.333Z,1.30
2023-02-02T10:14:10.630Z,0.80
2023-02-02T10:16:39.689Z,0.60
2023-02-02T10:19:12.121Z,1.70
2023-02-02T10:21:55.260Z,1.70
2023-02-02T10:24:24.462Z,1.60
2023-02-02T10:26:56.878Z,1.70
2023-02-02T10:29:28.095Z,2.60
2023-02-02T10:31:57.494Z,1.30
2023-02-02T10:34:32.091Z,1.70
2023-02-02T10:37:07.264Z,1.10
2023-02-02T10:39:38.194Z,0.90
2023-02-02T10:42:12.169Z,1.00
2023-02-02T10:44:52.170Z,1.60
2023-02-02T10:47:28.019Z,1.80
2023-02-02T10:50:16.609Z,1.40
2023-02-02T10:52:55.019Z,1.60
2023-02-02T10:55:33.060Z,1.40
2023-02-02T10:58:06.596Z,1.40
2023-02-02T11:00:45.299Z,1.50
2023-02-02T11:03:14.422Z,1.60
2023-02-02T11:06:03.963Z,1.20
2023-02-02T11:08:37.592Z,1.60
2023-02-02T11:11:16.732Z,1.30
2023-02-02T11:14:04.089Z,1.20
2023-02-02T11:19:16.935Z,0.90
2023-02-02T11:21:53.575Z,1.10
2023-02-02T11:24:26.594Z,1.30
2023-02-02T11:26:56.841Z,1.30
2023-02-02T11:29:31.179Z,1.30
2023-02-02T11:32:17.463Z,0.80
2023-02-02T11:34:45.634Z,0.90
2023-02-02T11:37:15.541Z,0.80
2023-02-02T11:39:43.974Z,0.80
2023-02-02T11:42:16.321Z,0.70
2023-02-02T11:44:47.247Z,0.80
2023-02-02T11:47:30.400Z,1.00
2023-02-02T11:49:59.699Z,1.10
2023-02-02T11:52:32.441Z,0.70
2023-02-02T11:55:02.821Z,1.10
2023-02-02T11:57:31.788Z,1.00
2023-02-02T12:00:08.183Z,0.90
2023-02-02T12:02:36.657Z,1.00
2023-02-02T12:05:11.063Z,1.10
2023-02-02T12:07:39.742Z,1.40
2023-02-02T12:10:24.619Z,1.00
2023-02-02T12:12:59.267Z,1.30
2023-02-02T12:15:36.192Z,1.30
2023-02-02T12:18:22.512Z,1.20
2023-02-02T12:20:59.625Z,1.10
2023-02-02T12:23:27.605Z,1.10
2023-02-02T12:25:55.418Z,0.80
2023-02-02T12:28:23.379Z,1.30
2023-02-02T12:31:09.970Z,0.80
2023-02-02T12:33:53.783Z,0.80
2023-02-02T12:36:30.607Z,1.30
2023-02-02T12:39:10.164Z,1.10
2023-02-02T12:41:56.597Z,1.50
2023-02-02T12:44:24.542Z,1.10
2023-02-02T12:47:08.969Z,1.10
2023-02-02T12:49:44.279Z,0.80
2023-02-02T12:52:16.040Z,1.00
2023-02-02T12:54:49.367Z,1.10
2023-02-02T12:57:27.073Z,1.60
2023-02-02T13:00:04.776Z,1.20
2023-02-02T13:02:40.808Z,1.30
2023-02-02T13:05:22.046Z,1.00
2023-02-02T13:07:51.718Z,1.40
2023-02-02T13:10:38.205Z,1.80
2023-02-02T13:13:13.563Z,1.30
2023-02-02T13:15:50.164Z,1.40
2023-02-02T13:18:18.317Z,1.80
2023-02-02T13:20:55.511Z,1.40
2023-02-02T13:23:35.982Z,1.80
2023-02-02T13:26:13.121Z,1.80
2023-02-02T13:28:41.514Z,2.00
2023-02-02T13:31:22.847Z,1.70
2023-02-02T13:33:56.234Z,2.20
2023-02-02T13:36:29.788Z,1.60
2023-02-02T13:39:00.181Z,1.70
2023-02-02T13:41:29.143Z,2.30
2023-02-02T13:43:59.896Z,2.70
2023-02-02T13:46:34.503Z,2.10
2023-02-02T13:49:02.757Z,1.80
2023-02-02T13:51:43.474Z,1.60
2023-02-02T13:54:20.697Z,1.80
2023-02-02T13:57:00.941Z,1.20
2023-02-02T13:59:31.880Z,1.30
2023-02-02T14:02:03.329Z,1.70
2023-02-02T14:04:31.831Z,1.20
2023-02-02T14:07:07.079Z,1.10
2023-02-02T14:09:36.942Z,1.30
2023-02-02T14:12:07.597Z,1.10
2023-02-02T14:14:38.420Z,1.30
2023-02-02T14:17:19.543Z,1.20
2023-02-02T14:19:52.578Z,1.00
2023-02-02T14:22:40.410Z,1.30
2023-02-02T14:25:27.722Z,1.30
2023-02-02T14:28:00.259Z,1.20
2023-02-02T14:30:30.280Z,1.60
2023-02-02T14:33:17.372Z,3.90
2023-02-02T14:35:45.621Z,1.30
2023-02-02T14:38:40.184Z,1.30
2023-02-02T14:41:46.348Z,1.00
2023-02-02T14:44:14.188Z,1.50
2023-02-02T14:46:48.540Z,1.50
2023-02-02T14:49:21.351Z,1.50
2023-02-02T14:51:52.362Z,1.50
2023-02-02T14:54:26.211Z,1.30
2023-02-02T14:56:57.117Z,1.40
2023-02-02T14:59:27.990Z,1.40
2023-02-02T15:02:00.151Z,1.70
2023-02-02T15:04:29.609Z,1.60
2023-02-02T15:07:19.289Z,1.20
2023-02-02T15:09:47.145Z,1.20
2023-02-02T15:12:20.776Z,1.00
2023-02-02T15:15:03.160Z,1.00
2023-02-02T15:17:35.585Z,1.10
2023-02-02T15:20:12.469Z,1.00
2023-02-02T15:22:46.835Z,0.80
2023-02-02T15:25:17.851Z,1.10
2023-02-02T15:27:56.530Z,1.10
2023-02-02T15:30:27.350Z,1.20
2023-02-02T15:32:56.005Z,1.50
2023-02-02T15:35:26.280Z,1.20
2023-02-02T15:37:59.375Z,1.40
2023-02-02T15:40:29.632Z,1.30
2023-02-02T15:43:03.556Z,1.80
2023-02-02T15:45:38.086Z,2.00
2023-02-02T15:48:16.582Z,1.60
2023-02-02T15:50:48.993Z,2.30
2023-02-02T15:53:19.234Z,1.70
2023-02-02T15:55:47.248Z,7.80
2023-02-02T15:58:24.479Z,1.90
2023-02-02T16:00:57.035Z,1.50
2023-02-02T16:03:30.810Z,5.00
2023-02-02T16:05:58.889Z,4.10
2023-02-02T16:08:29.007Z,7.00
2023-02-02T16:11:11.589Z,1.80
2023-02-02T16:13:40.577Z,3.60
2023-02-02T16:16:22.228Z,1.90
2023-02-02T16:19:01.648Z,1.30
2023-02-02T16:21:31.927Z,1.30
2023-02-02T16:24:03.181Z,1.30
2023-02-02T16:26:39.582Z,1.00
2023-02-02T16:29:11.336Z,2.40
2023-02-02T16:31:39.921Z,1.70
2023-02-02T16:34:14.289Z,1.00
2023-02-02T16:36:42.566Z,2.00
2023-02-02T16:39:22.900Z,0.90
2023-02-02T16:41:51.405Z,1.30
2023-02-02T16:44:37.752Z,5.60
2023-02-02T16:47:29.972Z,1.60
2023-02-02T16:50:08.157Z,1.10
2023-02-02T16:52:55.506Z,1.10
2023-02-02T16:57:53.022Z,1.60
2023-02-02T17:00:23.017Z,1.30
2023-02-02T17:02:53.519Z,3.30
2023-02-02T17:05:30.211Z,4.00
2023-02-02T17:08:00.903Z,3.40
2023-02-02T17:10:40.097Z,2.00
2023-02-02T17:13:37.743Z,2.70
2023-02-02T17:16:07.963Z,3.50
2023-02-02T17:18:37.023Z,3.60
2023-02-02T17:21:08.059Z,6.40
2023-02-02T17:23:37.777Z,2.00
2023-02-02T17:26:07.824Z,3.10
2023-02-02T17:28:38.858Z,2.30
2023-02-02T17:31:08.753Z,2.20
2023-02-02T17:33:37.663Z,1.90
2023-02-02T17:36:07.511Z,2.20
2023-02-02T17:38:38.358Z,2.10
2023-02-02T17:41:06.986Z,2.10
2023-02-02T17:43:35.251Z,2.10
2023-02-02T17:46:04.623Z,1.70
2023-02-02T17:48:35.350Z,2.20
2023-02-02T17:51:07.651Z,2.00
2023-02-02T17:53:35.736Z,1.80
2023-02-02T17:56:04.002Z,1.70
2023-02-02T17:58:32.582Z,1.70
2023-02-02T18:01:01.476Z,1.50
2023-02-02T18:03:34.640Z,1.50
2023-02-02T18:06:03.919Z,1.40
2023-02-02T18:08:33.136Z,1.50
2023-02-02T18:11:06.247Z,7.50
2023-02-02T18:13:34.416Z,1.70
2023-02-02T18:16:02.669Z,1.80
2023-02-02T18:18:30.766Z,1.40
2023-02-02T18:20:59.354Z,1.50
2023-02-02T18:23:28.234Z,1.70
2023-02-02T18:25:56.923Z,1.50
2023-02-02T18:28:25.717Z,1.40
2023-02-02T18:30:55.456Z,2.60
2023-02-02T18:33:26.675Z,1.60
2023-02-02T18:35:55.453Z,1.70
2023-02-02T18:38:25.695Z,2.00
2023-02-02T18:40:57.537Z,6.40
2023-02-02T18:43:27.463Z,1.80
2023-02-02T18:46:05.018Z,1.80
2023-02-02T18:48:33.469Z,1.80
2023-02-02T18:51:05.756Z,2.00
2023-02-02T18:53:34.128Z,2.40
2023-02-02T18:56:06.082Z,1.60
2023-02-02T18:58:37.123Z,1.90
2023-02-02T19:01:12.540Z,2.10
2023-02-02T19:03:41.382Z,2.10
2023-02-02T19:06:29.532Z,1.90
2023-02-02T19:08:58.102Z,1.60
2023-02-02T19:11:37.281Z,1.70
2023-02-02T19:14:26.868Z,1.40
2023-02-02T19:16:58.759Z,1.60
2023-02-02T19:19:33.592Z,1.40
2023-02-02T19:22:07.625Z,2.20
2023-02-02T19:24:39.846Z,1.60
2023-02-02T19:27:27.365Z,2.20
2023-02-02T19:29:56.759Z,1.50
2023-02-02T19:32:27.245Z,2.40
2023-02-02T19:35:01.614Z,2.10
2023-02-02T19:37:31.293Z,2.20
2023-02-02T19:40:15.417Z,2.00
2023-02-02T19:43:07.390Z,1.80
2023-02-02T19:45:36.242Z,2.30
2023-02-02T19:48:14.914Z,2.30
2023-02-02T19:50:43.877Z,2.40
2023-02-02T19:53:23.519Z,2.50
2023-02-02T19:55:52.827Z,2.70
2023-02-02T19:58:25.395Z,2.40
2023-02-02T20:00:53.991Z,2.50
2023-02-02T20:03:36.351Z,2.70
2023-02-02T20:06:06.092Z,2.30
2023-02-02T20:08:39.060Z,2.40
2023-02-02T20:11:32.509Z,2.20
2023-02-02T20:14:01.615Z,2.50
2023-02-02T20:16:44.334Z,3.20
2023-02-02T20:19:17.420Z,2.40
2023-02-02T20:21:47.595Z,2.50
2023-02-02T20:24:29.951Z,3.00
2023-02-02T20:27:03.708Z,3.60
2023-02-02T20:29:41.849Z,4.50
2023-02-02T20:32:21.417Z,4.00
2023-02-02T20:34:51.622Z,3.20
2023-02-02T20:37:24.431Z,3.20
2023-02-02T20:39:57.085Z,3.30
2023-02-02T20:42:26.794Z,3.70
2023-02-02T20:44:58.803Z,4.30
2023-02-02T20:47:27.022Z,4.00
2023-02-02T20:49:57.576Z,5.00
2023-02-02T20:52:26.799Z,4.50
2023-02-02T20:54:56.623Z,4.30
2023-02-02T20:57:26.586Z,4.00
2023-02-02T20:59:57.937Z,3.80
2023-02-02T21:02:27.663Z,3.80
2023-02-02T21:04:57.806Z,4.50
2023-02-02T21:07:27.809Z,4.40
2023-02-02T21:09:56.499Z,4.50
2023-02-02T21:12:26.050Z,3.80
2023-02-02T21:14:54.381Z,4.30
2023-02-02T21:17:24.557Z,4.70
2023-02-02T21:19:54.553Z,4.30
2023-02-02T21:22:22.982Z,4.20
2023-02-02T21:24:51.121Z,4.90
2023-02-02T21:27:20.063Z,5.50
2023-02-02T21:29:49.877Z,8.40
2023-02-02T21:32:18.202Z,7.80
2023-02-02T21:34:46.487Z,7.30
2023-02-02T21:37:15.192Z,7.90
2023-02-02T21:39:48.812Z,18.60
2023-02-02T21:42:18.596Z,26.90
2023-02-02T21:45:08.878Z,24.50
2023-02-02T21:47:40.652Z,14.90
2023-02-02T21:50:19.892Z,14.40
2023-02-02T21:52:48.119Z,8.60
2023-02-02T21:55:19.214Z,4.60
2023-02-02T21:57:48.113Z,3.80
2023-02-02T22:00:28.445Z,4.00
2023-02-02T22:03:00.440Z,4.60
2023-02-02T22:05:34.306Z,4.90
2023-02-02T22:08:09.017Z,4.80
2023-02-02T22:10:39.944Z,4.40
2023-02-02T22:13:20.725Z,4.50
2023-02-02T22:15:54.069Z,4.90
2023-02-02T22:18:24.399Z,4.30
2023-02-02T22:20:54.729Z,4.70
2023-02-02T22:23:27.270Z,4.40
2023-02-02T22:25:56.949Z,4.50
2023-02-02T22:28:28.014Z,4.50
2023-02-02T22:30:59.156Z,4.80
2023-02-02T22:33:28.247Z,6.10
2023-02-02T22:35:56.198Z,6.40
2023-02-02T22:38:25.036Z,6.60
2023-02-02T22:40:56.742Z,7.30
2023-02-02T22:43:26.557Z,7.10
2023-02-02T22:45:55.023Z,9.00
2023-02-02T22:48:23.077Z,8.10
2023-02-02T22:50:51.362Z,7.30
2023-02-02T22:53:19.741Z,8.80
2023-02-02T22:55:47.757Z,8.00
2023-02-02T22:58:15.673Z,7.50
2023-02-02T23:00:43.589Z,6.00
2023-02-02T23:03:12.173Z,7.00
2023-02-02T23:05:40.710Z,6.00
2023-02-02T23:08:08.984Z,5.60
2023-02-02T23:10:37.069Z,5.50
2023-02-02T23:13:06.356Z,5.50
2023-02-02T23:15:35.153Z,5.50
2023-02-02T23:18:04.442Z,5.60
2023-02-02T23:20:32.853Z,10.80
2023-02-02T23:23:01.228Z,17.10
2023-02-02T23:25:32.296Z,18.70
2023-02-02T23:28:00.642Z,10.30
2023-02-02T23:30:29.213Z,14.40
2023-02-02T23:32:57.442Z,27.60
2023-02-02T23:35:25.296Z,20.10
2023-02-02T23:37:53.606Z,25.80
2023-02-02T23:40:22.297Z,19.80
2023-02-02T23:42:50.870Z,14.90
2023-02-02T23:45:20.284Z,8.90
2023-02-02T23:47:48.862Z,16.40
2023-02-02T23:50:17.048Z,12.80
2023-02-02T23:52:45.201Z,8.60
2023-02-02T23:55:13.988Z,8.10
2023-02-02T23:57:42.058Z,7.40
